sensor_id;sensor_type;location;lat;lon;timestamp;pressure;altitude;pressure_sealevel;temperature;humidity
33414;BME280;60055;41.884;12.534;2023-07-08T00:01:54;101390.53;;;27.86;50.42
33414;BME280;60055;41.884;12.534;2023-07-08T00:04:19;101404.34;;;27.93;50.12
33414;BME280;60055;41.884;12.534;2023-07-08T00:06:45;101399.63;;;27.95;49.94
33414;BME280;60055;41.884;12.534;2023-07-08T00:09:11;101393.66;;;27.91;50.17
33414;BME280;60055;41.884;12.534;2023-07-08T00:11:37;101385.22;;;27.95;50.05
33414;BME280;60055;41.884;12.534;2023-07-08T00:14:02;101389.59;;;28.05;49.69
33414;BME280;60055;41.884;12.534;2023-07-08T00:16:28;101352.22;;;27.89;50.41
33414;BME280;60055;41.884;12.534;2023-07-08T00:18:53;101314.69;;;28.03;50.37
33414;BME280;60055;41.884;12.534;2023-07-08T00:21:19;101318.16;;;27.95;50.44
33414;BME280;60055;41.884;12.534;2023-07-08T00:23:46;101316.00;;;27.81;50.68
33414;BME280;60055;41.884;12.534;2023-07-08T00:26:18;101280.22;;;27.68;51.02
33414;BME280;60055;41.884;12.534;2023-07-08T00:28:44;101250.25;;;27.60;51.48
33414;BME280;60055;41.884;12.534;2023-07-08T00:31:10;101193.91;;;27.54;51.87
33414;BME280;60055;41.884;12.534;2023-07-08T00:33:36;101196.75;;;27.25;52.48
33414;BME280;60055;41.884;12.534;2023-07-08T00:36:01;101212.78;;;27.46;51.52
33414;BME280;60055;41.884;12.534;2023-07-08T00:38:27;101214.75;;;27.53;51.47
33414;BME280;60055;41.884;12.534;2023-07-08T00:41:04;101215.31;;;27.57;51.17
33414;BME280;60055;41.884;12.534;2023-07-08T00:43:37;101194.34;;;27.49;51.60
33414;BME280;60055;41.884;12.534;2023-07-08T00:51:43;101216.09;;;27.39;52.06
33414;BME280;60055;41.884;12.534;2023-07-08T00:54:13;101224.09;;;27.31;52.06
33414;BME280;60055;41.884;12.534;2023-07-08T00:56:55;101243.00;;;27.23;52.35
33414;BME280;60055;41.884;12.534;2023-07-08T01:01:56;101312.16;;;26.90;53.61
33414;BME280;60055;41.884;12.534;2023-07-08T01:04:30;101343.16;;;26.50;55.10
33414;BME280;60055;41.884;12.534;2023-07-08T01:06:58;101367.66;;;26.29;55.52
33414;BME280;60055;41.884;12.534;2023-07-08T01:09:31;101386.91;;;26.45;55.04
33414;BME280;60055;41.884;12.534;2023-07-08T01:12:02;101404.72;;;26.28;55.87
33414;BME280;60055;41.884;12.534;2023-07-08T01:14:32;101421.44;;;26.13;55.88
33414;BME280;60055;41.884;12.534;2023-07-08T01:16:59;101445.03;;;26.31;55.75
33414;BME280;60055;41.884;12.534;2023-07-08T01:19:26;101450.00;;;26.26;55.39
33414;BME280;60055;41.884;12.534;2023-07-08T01:22:03;101436.75;;;26.23;55.29
33414;BME280;60055;41.884;12.534;2023-07-08T01:24:30;101430.63;;;26.21;55.88
33414;BME280;60055;41.884;12.534;2023-07-08T01:26:57;101425.84;;;26.14;56.86
33414;BME280;60055;41.884;12.534;2023-07-08T01:29:23;101428.75;;;25.82;58.27
33414;BME280;60055;41.884;12.534;2023-07-08T01:31:49;101426.22;;;25.90;58.58
33414;BME280;60055;41.884;12.534;2023-07-08T01:34:15;101420.78;;;25.90;58.47
33414;BME280;60055;41.884;12.534;2023-07-08T01:36:44;101396.47;;;26.00;58.39
33414;BME280;60055;41.884;12.534;2023-07-08T01:39:16;101371.53;;;25.96;58.45
33414;BME280;60055;41.884;12.534;2023-07-08T01:41:43;101363.63;;;26.23;57.52
33414;BME280;60055;41.884;12.534;2023-07-08T01:44:32;101341.97;;;26.33;57.10
33414;BME280;60055;41.884;12.534;2023-07-08T01:47:00;101346.84;;;26.29;57.14
33414;BME280;60055;41.884;12.534;2023-07-08T01:49:27;101365.06;;;26.37;57.03
33414;BME280;60055;41.884;12.534;2023-07-08T01:51:53;101370.00;;;26.13;57.53
33414;BME280;60055;41.884;12.534;2023-07-08T01:54:20;101364.09;;;26.48;56.17
33414;BME280;60055;41.884;12.534;2023-07-08T01:56:45;101368.81;;;26.55;56.43
33414;BME280;60055;41.884;12.534;2023-07-08T01:59:11;101379.94;;;26.62;56.08
33414;BME280;60055;41.884;12.534;2023-07-08T02:01:36;101371.22;;;26.68;55.73
33414;BME280;60055;41.884;12.534;2023-07-08T02:04:02;101363.66;;;26.62;56.28
33414;BME280;60055;41.884;12.534;2023-07-08T02:06:27;101365.53;;;26.52;56.19
33414;BME280;60055;41.884;12.534;2023-07-08T02:08:53;101354.56;;;26.63;56.37
33414;BME280;60055;41.884;12.534;2023-07-08T02:11:20;101356.13;;;26.46;56.59
33414;BME280;60055;41.884;12.534;2023-07-08T02:13:45;101356.25;;;26.45;56.75
33414;BME280;60055;41.884;12.534;2023-07-08T02:16:11;101359.81;;;26.35;56.99
33414;BME280;60055;41.884;12.534;2023-07-08T02:18:36;101353.53;;;26.45;56.56
33414;BME280;60055;41.884;12.534;2023-07-08T02:21:02;101353.66;;;26.33;57.07
33414;BME280;60055;41.884;12.534;2023-07-08T02:23:27;101346.69;;;26.21;57.22
33414;BME280;60055;41.884;12.534;2023-07-08T02:25:53;101358.66;;;26.28;56.89
33414;BME280;60055;41.884;12.534;2023-07-08T02:28:20;101366.94;;;26.36;56.57
33414;BME280;60055;41.884;12.534;2023-07-08T02:30:45;101370.25;;;26.50;56.27
33414;BME280;60055;41.884;12.534;2023-07-08T02:33:14;101370.25;;;26.59;56.14
33414;BME280;60055;41.884;12.534;2023-07-08T02:35:42;101368.81;;;26.65;55.73
33414;BME280;60055;41.884;12.534;2023-07-08T02:38:08;101354.84;;;26.60;55.94
33414;BME280;60055;41.884;12.534;2023-07-08T02:40:34;101352.13;;;26.60;56.05
33414;BME280;60055;41.884;12.534;2023-07-08T02:42:59;101349.13;;;26.63;55.91
33414;BME280;60055;41.884;12.534;2023-07-08T02:45:24;101340.84;;;26.55;55.71
33414;BME280;60055;41.884;12.534;2023-07-08T02:47:50;101336.00;;;26.49;56.17
33414;BME280;60055;41.884;12.534;2023-07-08T02:50:15;101322.88;;;26.54;55.72
33414;BME280;60055;41.884;12.534;2023-07-08T02:52:42;101313.34;;;26.59;55.95
33414;BME280;60055;41.884;12.534;2023-07-08T02:55:08;101308.78;;;26.50;55.88
33414;BME280;60055;41.884;12.534;2023-07-08T02:57:33;101297.25;;;26.38;56.36
33414;BME280;60055;41.884;12.534;2023-07-08T02:59:59;101283.84;;;26.18;57.16
33414;BME280;60055;41.884;12.534;2023-07-08T03:02:26;101273.41;;;26.04;57.47
33414;BME280;60055;41.884;12.534;2023-07-08T03:04:52;101260.19;;;26.20;57.52
33414;BME280;60055;41.884;12.534;2023-07-08T03:07:19;101248.50;;;26.29;57.04
33414;BME280;60055;41.884;12.534;2023-07-08T03:09:45;101248.78;;;26.35;56.93
33414;BME280;60055;41.884;12.534;2023-07-08T03:12:11;101231.66;;;26.45;56.26
33414;BME280;60055;41.884;12.534;2023-07-08T03:14:37;101220.00;;;26.25;56.98
33414;BME280;60055;41.884;12.534;2023-07-08T03:17:03;101224.00;;;26.21;56.55
33414;BME280;60055;41.884;12.534;2023-07-08T03:19:29;101233.38;;;26.26;56.25
33414;BME280;60055;41.884;12.534;2023-07-08T03:21:54;101224.28;;;26.18;56.49
33414;BME280;60055;41.884;12.534;2023-07-08T03:24:20;101212.56;;;26.08;56.47
33414;BME280;60055;41.884;12.534;2023-07-08T03:26:46;101204.00;;;26.03;56.68
33414;BME280;60055;41.884;12.534;2023-07-08T03:29:16;101192.31;;;25.92;56.97
33414;BME280;60055;41.884;12.534;2023-07-08T03:31:43;101196.47;;;25.97;56.91
33414;BME280;60055;41.884;12.534;2023-07-08T03:34:12;101210.56;;;25.90;57.36
33414;BME280;60055;41.884;12.534;2023-07-08T03:36:49;101223.13;;;25.82;57.50
33414;BME280;60055;41.884;12.534;2023-07-08T03:39:19;101229.22;;;25.84;57.88
33414;BME280;60055;41.884;12.534;2023-07-08T03:41:45;101232.50;;;25.87;57.59
33414;BME280;60055;41.884;12.534;2023-07-08T03:44:12;101228.06;;;25.58;58.91
33414;BME280;60055;41.884;12.534;2023-07-08T03:46:37;101218.81;;;25.70;58.63
33414;BME280;60055;41.884;12.534;2023-07-08T03:49:04;101214.66;;;25.66;58.60
33414;BME280;60055;41.884;12.534;2023-07-08T03:51:33;101216.94;;;25.61;58.79
33414;BME280;60055;41.884;12.534;2023-07-08T03:53:59;101224.50;;;25.67;58.70
33414;BME280;60055;41.884;12.534;2023-07-08T03:56:25;101226.63;;;25.73;58.42
33414;BME280;60055;41.884;12.534;2023-07-08T03:58:50;101223.13;;;25.82;58.06
33414;BME280;60055;41.884;12.534;2023-07-08T04:01:18;101229.94;;;25.86;58.05
33414;BME280;60055;41.884;12.534;2023-07-08T04:03:46;101227.09;;;25.78;57.82
33414;BME280;60055;41.884;12.534;2023-07-08T04:06:12;101223.34;;;25.69;57.98
33414;BME280;60055;41.884;12.534;2023-07-08T04:08:37;101235.34;;;25.86;57.78
33414;BME280;60055;41.884;12.534;2023-07-08T04:11:03;101233.09;;;25.91;57.28
33414;BME280;60055;41.884;12.534;2023-07-08T04:13:29;101241.59;;;25.77;57.54
33414;BME280;60055;41.884;12.534;2023-07-08T04:15:56;101240.06;;;25.93;57.35
33414;BME280;60055;41.884;12.534;2023-07-08T04:18:24;101234.94;;;25.90;57.44
33414;BME280;60055;41.884;12.534;2023-07-08T04:20:49;101235.50;;;25.84;57.60
33414;BME280;60055;41.884;12.534;2023-07-08T04:23:20;101230.78;;;25.77;57.60
33414;BME280;60055;41.884;12.534;2023-07-08T04:25:50;101221.97;;;25.75;57.79
33414;BME280;60055;41.884;12.534;2023-07-08T04:28:18;101220.53;;;25.90;57.32
33414;BME280;60055;41.884;12.534;2023-07-08T04:30:43;101231.06;;;25.83;57.75
33414;BME280;60055;41.884;12.534;2023-07-08T04:33:13;101226.81;;;25.71;57.99
33414;BME280;60055;41.884;12.534;2023-07-08T04:35:39;101226.28;;;25.47;58.87
33414;BME280;60055;41.884;12.534;2023-07-08T04:38:06;101221.38;;;25.62;57.86
33414;BME280;60055;41.884;12.534;2023-07-08T04:40:36;101210.00;;;25.68;58.07
33414;BME280;60055;41.884;12.534;2023-07-08T04:43:07;101202.75;;;25.78;57.37
33414;BME280;60055;41.884;12.534;2023-07-08T04:45:33;101209.72;;;25.80;57.22
33414;BME280;60055;41.884;12.534;2023-07-08T04:48:00;101219.09;;;25.67;57.74
33414;BME280;60055;41.884;12.534;2023-07-08T04:50:25;101214.44;;;25.88;56.84
33414;BME280;60055;41.884;12.534;2023-07-08T04:52:51;101206.44;;;25.96;56.73
33414;BME280;60055;41.884;12.534;2023-07-08T04:55:16;101213.72;;;26.15;56.31
33414;BME280;60055;41.884;12.534;2023-07-08T04:57:42;101223.81;;;26.13;55.96
33414;BME280;60055;41.884;12.534;2023-07-08T05:00:13;101224.72;;;26.32;56.30
33414;BME280;60055;41.884;12.534;2023-07-08T05:02:40;101219.50;;;26.68;55.25
33414;BME280;60055;41.884;12.534;2023-07-08T05:05:06;101227.06;;;27.11;53.83
33414;BME280;60055;41.884;12.534;2023-07-08T05:07:32;101228.19;;;27.18;52.26
33414;BME280;60055;41.884;12.534;2023-07-08T05:09:57;101237.81;;;27.03;52.80
33414;BME280;60055;41.884;12.534;2023-07-08T05:12:23;101239.09;;;27.35;52.01
33414;BME280;60055;41.884;12.534;2023-07-08T05:14:49;101240.63;;;27.38;51.65
33414;BME280;60055;41.884;12.534;2023-07-08T05:17:15;101240.31;;;27.41;51.17
33414;BME280;60055;41.884;12.534;2023-07-08T05:19:40;101248.66;;;27.67;51.05
33414;BME280;60055;41.884;12.534;2023-07-08T05:22:06;101253.66;;;27.44;51.22
33414;BME280;60055;41.884;12.534;2023-07-08T05:24:32;101263.03;;;27.50;51.08
33414;BME280;60055;41.884;12.534;2023-07-08T05:26:57;101265.88;;;27.48;51.55
33414;BME280;60055;41.884;12.534;2023-07-08T05:29:25;101271.31;;;27.93;50.56
33414;BME280;60055;41.884;12.534;2023-07-08T05:31:51;101275.53;;;28.05;50.31
33414;BME280;60055;41.884;12.534;2023-07-08T05:34:16;101281.78;;;28.15;49.82
33414;BME280;60055;41.884;12.534;2023-07-08T05:36:42;101284.22;;;28.09;50.24
33414;BME280;60055;41.884;12.534;2023-07-08T05:39:07;101298.31;;;28.22;49.74
33414;BME280;60055;41.884;12.534;2023-07-08T05:41:33;101299.44;;;28.19;49.37
33414;BME280;60055;41.884;12.534;2023-07-08T05:43:58;101309.25;;;28.03;50.34
33414;BME280;60055;41.884;12.534;2023-07-08T05:46:24;101327.16;;;28.40;49.40
33414;BME280;60055;41.884;12.534;2023-07-08T05:48:49;101334.09;;;28.35;49.40
33414;BME280;60055;41.884;12.534;2023-07-08T05:51:16;101334.47;;;28.40;48.64
33414;BME280;60055;41.884;12.534;2023-07-08T05:53:42;101334.38;;;28.85;47.94
33414;BME280;60055;41.884;12.534;2023-07-08T05:56:07;101327.72;;;29.05;46.59
33414;BME280;60055;41.884;12.534;2023-07-08T05:58:33;101317.94;;;29.20;46.49
33414;BME280;60055;41.884;12.534;2023-07-08T06:00:59;101327.66;;;29.23;45.85
33414;BME280;60055;41.884;12.534;2023-07-08T06:03:25;101330.97;;;29.26;46.08
33414;BME280;60055;41.884;12.534;2023-07-08T06:05:51;101328.09;;;28.84;46.94
33414;BME280;60055;41.884;12.534;2023-07-08T06:08:16;101337.75;;;29.05;46.81
33414;BME280;60055;41.884;12.534;2023-07-08T06:10:43;101344.00;;;29.49;45.63
33414;BME280;60055;41.884;12.534;2023-07-08T06:13:09;101333.47;;;29.87;44.69
33414;BME280;60055;41.884;12.534;2023-07-08T06:15:34;101335.09;;;30.22;43.89
33414;BME280;60055;41.884;12.534;2023-07-08T06:18:00;101326.56;;;30.17;43.34
33414;BME280;60055;41.884;12.534;2023-07-08T06:20:27;101322.44;;;29.97;44.51
33414;BME280;60055;41.884;12.534;2023-07-08T06:22:53;101322.28;;;29.57;44.68
33414;BME280;60055;41.884;12.534;2023-07-08T06:25:19;101310.84;;;29.87;44.45
33414;BME280;60055;41.884;12.534;2023-07-08T06:27:44;101314.41;;;29.87;44.65
33414;BME280;60055;41.884;12.534;2023-07-08T06:30:10;101310.50;;;29.90;45.02
33414;BME280;60055;41.884;12.534;2023-07-08T06:32:35;101316.88;;;30.31;43.60
33414;BME280;60055;41.884;12.534;2023-07-08T06:35:01;101333.31;;;30.55;43.54
33414;BME280;60055;41.884;12.534;2023-07-08T06:37:26;101333.81;;;30.75;43.07
33414;BME280;60055;41.884;12.534;2023-07-08T06:39:52;101327.97;;;30.94;42.84
33414;BME280;60055;41.884;12.534;2023-07-08T06:42:17;101334.13;;;30.80;42.85
33414;BME280;60055;41.884;12.534;2023-07-08T06:44:42;101324.44;;;31.02;42.37
33414;BME280;60055;41.884;12.534;2023-07-08T06:47:18;101335.16;;;31.19;42.45
33414;BME280;60055;41.884;12.534;2023-07-08T06:49:45;101326.91;;;31.27;41.95
33414;BME280;60055;41.884;12.534;2023-07-08T06:52:11;101327.78;;;31.36;41.98
33414;BME280;60055;41.884;12.534;2023-07-08T06:54:36;101325.53;;;31.39;42.05
33414;BME280;60055;41.884;12.534;2023-07-08T06:57:02;101327.91;;;31.51;41.37
33414;BME280;60055;41.884;12.534;2023-07-08T06:59:27;101320.31;;;31.77;41.01
33414;BME280;60055;41.884;12.534;2023-07-08T07:01:54;101326.47;;;32.02;40.67
33414;BME280;60055;41.884;12.534;2023-07-08T07:04:19;101328.47;;;32.16;40.32
33414;BME280;60055;41.884;12.534;2023-07-08T07:06:45;101330.41;;;32.53;39.83
33414;BME280;60055;41.884;12.534;2023-07-08T07:09:10;101325.28;;;32.58;39.43
33414;BME280;60055;41.884;12.534;2023-07-08T07:11:36;101332.28;;;32.60;39.81
33414;BME280;60055;41.884;12.534;2023-07-08T07:14:01;101341.84;;;32.33;40.20
33414;BME280;60055;41.884;12.534;2023-07-08T07:16:27;101349.94;;;32.95;38.81
33414;BME280;60055;41.884;12.534;2023-07-08T07:18:52;101355.25;;;33.11;39.04
33414;BME280;60055;41.884;12.534;2023-07-08T07:21:18;101375.59;;;33.31;38.42
33414;BME280;60055;41.884;12.534;2023-07-08T07:23:44;101391.19;;;32.01;40.64
33414;BME280;60055;41.884;12.534;2023-07-08T07:26:09;101392.91;;;31.94;40.63
33414;BME280;60055;41.884;12.534;2023-07-08T07:28:35;101386.78;;;32.62;39.61
33414;BME280;60055;41.884;12.534;2023-07-08T07:31:00;101382.13;;;32.39;39.46
33414;BME280;60055;41.884;12.534;2023-07-08T07:33:26;101377.66;;;32.16;40.71
33414;BME280;60055;41.884;12.534;2023-07-08T07:35:52;101386.72;;;32.16;39.99
33414;BME280;60055;41.884;12.534;2023-07-08T07:38:18;101385.31;;;31.02;42.27
33414;BME280;60055;41.884;12.534;2023-07-08T07:40:44;101382.84;;;31.95;40.76
33414;BME280;60055;41.884;12.534;2023-07-08T07:43:10;101368.66;;;32.83;39.03
33414;BME280;60055;41.884;12.534;2023-07-08T07:45:36;101369.66;;;33.43;37.63
33414;BME280;60055;41.884;12.534;2023-07-08T07:48:02;101368.06;;;33.77;36.92
33414;BME280;60055;41.884;12.534;2023-07-08T07:50:28;101369.59;;;33.65;36.81
33414;BME280;60055;41.884;12.534;2023-07-08T07:52:53;101368.31;;;33.38;37.71
33414;BME280;60055;41.884;12.534;2023-07-08T07:55:19;101368.72;;;33.79;37.12
33414;BME280;60055;41.884;12.534;2023-07-08T07:57:44;101367.56;;;33.45;37.87
33414;BME280;60055;41.884;12.534;2023-07-08T08:00:12;101368.56;;;33.66;37.27
33414;BME280;60055;41.884;12.534;2023-07-08T08:02:40;101364.19;;;33.86;36.83
33414;BME280;60055;41.884;12.534;2023-07-08T08:05:05;101369.28;;;33.75;37.04
33414;BME280;60055;41.884;12.534;2023-07-08T08:07:31;101370.75;;;34.21;36.06
33414;BME280;60055;41.884;12.534;2023-07-08T08:09:56;101371.47;;;34.66;35.70
33414;BME280;60055;41.884;12.534;2023-07-08T08:12:22;101372.94;;;34.68;35.15
33414;BME280;60055;41.884;12.534;2023-07-08T08:14:50;101373.44;;;34.36;35.79
33414;BME280;60055;41.884;12.534;2023-07-08T08:17:15;101374.41;;;34.28;36.41
33414;BME280;60055;41.884;12.534;2023-07-08T08:19:41;101363.03;;;33.37;37.89
33414;BME280;60055;41.884;12.534;2023-07-08T08:22:06;101360.50;;;33.65;37.63
33414;BME280;60055;41.884;12.534;2023-07-08T08:24:33;101361.53;;;33.93;36.89
33414;BME280;60055;41.884;12.534;2023-07-08T08:26:58;101361.44;;;33.86;36.87
33414;BME280;60055;41.884;12.534;2023-07-08T08:29:25;101352.16;;;34.02;36.81
33414;BME280;60055;41.884;12.534;2023-07-08T08:31:50;101355.41;;;33.32;38.08
33414;BME280;60055;41.884;12.534;2023-07-08T08:34:16;101363.88;;;33.96;36.77
33414;BME280;60055;41.884;12.534;2023-07-08T08:36:42;101357.63;;;34.17;36.15
33414;BME280;60055;41.884;12.534;2023-07-08T08:39:08;101347.78;;;34.22;35.88
33414;BME280;60055;41.884;12.534;2023-07-08T08:41:36;101348.25;;;34.47;36.00
33414;BME280;60055;41.884;12.534;2023-07-08T08:44:03;101347.91;;;34.57;35.43
33414;BME280;60055;41.884;12.534;2023-07-08T08:46:32;101345.50;;;34.47;35.76
33414;BME280;60055;41.884;12.534;2023-07-08T08:49:05;101357.88;;;34.07;36.67
33414;BME280;60055;41.884;12.534;2023-07-08T08:51:34;101346.34;;;33.61;37.99
33414;BME280;60055;41.884;12.534;2023-07-08T08:54:00;101341.13;;;33.52;38.09
33414;BME280;60055;41.884;12.534;2023-07-08T08:56:34;101329.03;;;34.11;36.64
33414;BME280;60055;41.884;12.534;2023-07-08T09:01:40;101345.03;;;34.22;36.60
33414;BME280;60055;41.884;12.534;2023-07-08T09:04:12;101350.59;;;34.29;36.51
33414;BME280;60055;41.884;12.534;2023-07-08T09:06:41;101352.41;;;34.22;36.70
33414;BME280;60055;41.884;12.534;2023-07-08T09:09:16;101354.22;;;33.56;37.63
33414;BME280;60055;41.884;12.534;2023-07-08T09:14:26;101366.72;;;33.44;38.81
33414;BME280;60055;41.884;12.534;2023-07-08T09:19:33;101339.63;;;33.64;38.45
33414;BME280;60055;41.884;12.534;2023-07-08T09:22:02;101338.13;;;33.76;38.29
33414;BME280;60055;41.884;12.534;2023-07-08T09:24:45;101327.00;;;34.13;37.55
33414;BME280;60055;41.884;12.534;2023-07-08T09:27:11;101319.56;;;34.28;36.92
33414;BME280;60055;41.884;12.534;2023-07-08T09:29:37;101321.84;;;34.46;36.81
33414;BME280;60055;41.884;12.534;2023-07-08T09:32:29;101318.19;;;34.39;36.54
33414;BME280;60055;41.884;12.534;2023-07-08T09:34:56;101324.38;;;34.48;36.75
33414;BME280;60055;41.884;12.534;2023-07-08T09:37:29;101328.47;;;34.30;36.78
33414;BME280;60055;41.884;12.534;2023-07-08T09:39:56;101310.19;;;34.02;37.78
33414;BME280;60055;41.884;12.534;2023-07-08T09:42:25;101313.78;;;34.02;37.56
33414;BME280;60055;41.884;12.534;2023-07-08T09:45:01;101302.41;;;33.55;38.29
33414;BME280;60055;41.884;12.534;2023-07-08T09:47:33;101306.28;;;33.46;38.63
33414;BME280;60055;41.884;12.534;2023-07-08T09:49:59;101311.72;;;33.60;38.32
33414;BME280;60055;41.884;12.534;2023-07-08T09:52:29;101302.72;;;33.96;37.59
33414;BME280;60055;41.884;12.534;2023-07-08T09:54:55;101303.84;;;34.01;37.79
33414;BME280;60055;41.884;12.534;2023-07-08T09:57:32;101312.69;;;33.67;38.52
33414;BME280;60055;41.884;12.534;2023-07-08T10:00:00;101308.63;;;33.78;38.20
33414;BME280;60055;41.884;12.534;2023-07-08T10:05:34;101300.13;;;33.58;38.59
33414;BME280;60055;41.884;12.534;2023-07-08T10:08:02;101305.25;;;33.76;38.20
33414;BME280;60055;41.884;12.534;2023-07-08T10:10:35;101304.78;;;33.72;38.03
33414;BME280;60055;41.884;12.534;2023-07-08T10:16:06;101303.13;;;33.93;37.51
33414;BME280;60055;41.884;12.534;2023-07-08T10:18:35;101301.56;;;34.19;37.58
33414;BME280;60055;41.884;12.534;2023-07-08T10:21:07;101296.75;;;34.07;36.85
33414;BME280;60055;41.884;12.534;2023-07-08T10:26:28;101285.97;;;34.05;37.07
33414;BME280;60055;41.884;12.534;2023-07-08T10:31:32;101292.81;;;34.30;36.97
33414;BME280;60055;41.884;12.534;2023-07-08T10:45:39;101291.28;;;34.49;34.41
33414;BME280;60055;41.884;12.534;2023-07-08T10:53:57;101283.00;;;34.43;34.29
33414;BME280;60055;41.884;12.534;2023-07-08T10:56:53;101267.06;;;34.31;34.22
33414;BME280;60055;41.884;12.534;2023-07-08T11:03:03;101285.09;;;34.41;34.12
33414;BME280;60055;41.884;12.534;2023-07-08T11:05:44;101283.78;;;34.36;34.54
33414;BME280;60055;41.884;12.534;2023-07-08T11:08:19;101294.22;;;34.48;35.61
33414;BME280;60055;41.884;12.534;2023-07-08T11:10:53;101288.19;;;34.59;36.12
33414;BME280;60055;41.884;12.534;2023-07-08T11:13:23;101279.19;;;34.65;35.57
33414;BME280;60055;41.884;12.534;2023-07-08T11:16:07;101269.31;;;34.64;35.56
33414;BME280;60055;41.884;12.534;2023-07-08T11:21:25;101273.91;;;34.84;35.08
33414;BME280;60055;41.884;12.534;2023-07-08T11:26:37;101269.41;;;34.56;35.53
33414;BME280;60055;41.884;12.534;2023-07-08T11:29:16;101268.75;;;34.54;34.96
33414;BME280;60055;41.884;12.534;2023-07-08T11:31:44;101269.16;;;34.51;35.13
33414;BME280;60055;41.884;12.534;2023-07-08T11:34:12;101265.22;;;34.38;35.26
33414;BME280;60055;41.884;12.534;2023-07-08T11:36:39;101264.00;;;34.62;34.56
33414;BME280;60055;41.884;12.534;2023-07-08T11:39:26;101262.75;;;34.65;34.22
33414;BME280;60055;41.884;12.534;2023-07-08T11:41:53;101256.63;;;34.63;34.38
33414;BME280;60055;41.884;12.534;2023-07-08T11:44:28;101250.34;;;34.69;33.91
33414;BME280;60055;41.884;12.534;2023-07-08T11:46:55;101252.75;;;34.85;33.83
33414;BME280;60055;41.884;12.534;2023-07-08T11:49:22;101235.56;;;34.98;32.64
33414;BME280;60055;41.884;12.534;2023-07-08T11:51:48;101244.06;;;35.09;32.89
33414;BME280;60055;41.884;12.534;2023-07-08T11:56:57;101250.28;;;35.18;33.88
33414;BME280;60055;41.884;12.534;2023-07-08T11:59:25;101248.97;;;35.14;33.97
33414;BME280;60055;41.884;12.534;2023-07-08T12:04:55;101243.81;;;35.04;34.46
33414;BME280;60055;41.884;12.534;2023-07-08T12:07:31;101235.50;;;35.25;34.33
33414;BME280;60055;41.884;12.534;2023-07-08T12:10:15;101241.53;;;35.42;33.61
33414;BME280;60055;41.884;12.534;2023-07-08T12:12:43;101237.41;;;35.18;33.97
33414;BME280;60055;41.884;12.534;2023-07-08T12:17:39;101226.03;;;35.28;34.30
33414;BME280;60055;41.884;12.534;2023-07-08T12:20:27;101225.06;;;35.08;34.72
33414;BME280;60055;41.884;12.534;2023-07-08T12:22:53;101224.06;;;35.22;34.37
33414;BME280;60055;41.884;12.534;2023-07-08T12:25:23;101227.69;;;35.22;33.99
33414;BME280;60055;41.884;12.534;2023-07-08T12:27:49;101226.44;;;35.25;33.82
33414;BME280;60055;41.884;12.534;2023-07-08T12:30:16;101229.38;;;35.23;34.27
33414;BME280;60055;41.884;12.534;2023-07-08T12:32:43;101228.81;;;35.34;34.01
33414;BME280;60055;41.884;12.534;2023-07-08T12:35:38;101225.31;;;34.85;34.46
33414;BME280;60055;41.884;12.534;2023-07-08T12:38:30;101220.94;;;34.91;33.94
33414;BME280;60055;41.884;12.534;2023-07-08T12:40:58;101221.16;;;35.23;33.53
33414;BME280;60055;41.884;12.534;2023-07-08T12:43:25;101218.41;;;35.23;33.52
33414;BME280;60055;41.884;12.534;2023-07-08T12:45:50;101218.66;;;35.28;33.17
33414;BME280;60055;41.884;12.534;2023-07-08T12:48:16;101224.09;;;35.69;32.62
33414;BME280;60055;41.884;12.534;2023-07-08T12:50:41;101225.91;;;35.56;32.64
33414;BME280;60055;41.884;12.534;2023-07-08T12:53:07;101222.84;;;35.24;33.34
33414;BME280;60055;41.884;12.534;2023-07-08T12:55:37;101220.50;;;35.21;34.08
33414;BME280;60055;41.884;12.534;2023-07-08T12:58:04;101224.06;;;35.22;34.40
33414;BME280;60055;41.884;12.534;2023-07-08T13:00:36;101213.31;;;35.20;35.82
33414;BME280;60055;41.884;12.534;2023-07-08T13:03:07;101216.94;;;35.27;36.85
33414;BME280;60055;41.884;12.534;2023-07-08T13:05:34;101214.56;;;35.18;37.80
33414;BME280;60055;41.884;12.534;2023-07-08T13:08:00;101214.66;;;35.37;37.63
33414;BME280;60055;41.884;12.534;2023-07-08T13:10:28;101216.91;;;35.21;38.45
33414;BME280;60055;41.884;12.534;2023-07-08T13:13:02;101214.25;;;35.41;37.87
33414;BME280;60055;41.884;12.534;2023-07-08T13:15:35;101215.19;;;35.61;37.33
33414;BME280;60055;41.884;12.534;2023-07-08T13:18:02;101223.66;;;35.66;36.54
33414;BME280;60055;41.884;12.534;2023-07-08T13:20:28;101218.91;;;35.47;37.13
33414;BME280;60055;41.884;12.534;2023-07-08T13:22:57;101222.84;;;35.72;36.54
33414;BME280;60055;41.884;12.534;2023-07-08T13:25:28;101221.75;;;35.60;37.52
33414;BME280;60055;41.884;12.534;2023-07-08T13:27:59;101224.66;;;35.52;37.71
33414;BME280;60055;41.884;12.534;2023-07-08T13:30:27;101221.06;;;35.58;37.68
33414;BME280;60055;41.884;12.534;2023-07-08T13:32:57;101226.91;;;35.35;37.86
33414;BME280;60055;41.884;12.534;2023-07-08T13:35:43;101217.28;;;35.52;37.02
33414;BME280;60055;41.884;12.534;2023-07-08T13:38:16;101221.03;;;35.45;37.20
33414;BME280;60055;41.884;12.534;2023-07-08T13:40:57;101218.53;;;35.56;36.63
33414;BME280;60055;41.884;12.534;2023-07-08T13:43:25;101222.31;;;35.49;36.40
33414;BME280;60055;41.884;12.534;2023-07-08T13:45:51;101221.41;;;35.35;36.26
33414;BME280;60055;41.884;12.534;2023-07-08T13:48:42;101231.63;;;35.54;35.70